CMP300 SEGU-MNMG
Flight info
| Callsign | CMP300 |
|---|---|
| Flight time | N/A |
| Altitude | 32000 |
| Route | RENAR2A RENAR DCT MNV UL207 LIXAS UZ593 PARRI DCT ARENA UA502 ULAPO LISPA1A |
| Aircraft | B738/M-SDE2E3FGHIRWXY/LB1 |
Departure
| Time | 2026-04-25 01:38 |
|---|---|
| Airport | José Joaquín de Olmedo International Airport (SEGU) |
Arrival
| Time | N/A |
|---|---|
| Airport | Augusto C. Sandino (Managua) International Airport (MNMG) |
| Time | Latitude | Longitude | Altitude | Speed | Heading |
|---|---|---|---|---|---|
| 2026-04-25 01:13 | -2.14829 | -79.88304 | 21 ft | 0 kts | 300° |
| 2026-04-25 01:27 | -2.14830 | -79.88303 | 21 ft | 2 kts | 300° |
| 2026-04-25 01:27 | -2.14843 | -79.88282 | 21 ft | 4 kts | 310° |
| 2026-04-25 01:27 | -2.14863 | -79.88264 | 22 ft | 4 kts | 330° |
| 2026-04-25 01:28 | -2.14896 | -79.88262 | 21 ft | 1 kts | 29° |
| 2026-04-25 01:30 | -2.14877 | -79.88250 | 22 ft | 3 kts | 32° |
| 2026-04-25 01:31 | -2.14874 | -79.88248 | 22 ft | 6 kts | 31° |
| 2026-04-25 01:31 | -2.14791 | -79.88180 | 23 ft | 15 kts | 72° |
| 2026-04-25 01:31 | -2.14810 | -79.88107 | 23 ft | 16 kts | 123° |
| 2026-04-25 01:32 | -2.14812 | -79.88015 | 22 ft | 14 kts | 40° |
| 2026-04-25 01:32 | -2.14695 | -79.87953 | 22 ft | 24 kts | 35° |
| 2026-04-25 01:32 | -2.14658 | -79.87902 | 21 ft | 0 kts | 67° |
| 2026-04-25 01:33 | -2.14657 | -79.87902 | 21 ft | 0 kts | 67° |
| 2026-04-25 01:36 | -2.14656 | -79.87899 | 23 ft | 5 kts | 67° |
| 2026-04-25 01:37 | -2.14629 | -79.87798 | 21 ft | 18 kts | 89° |
| 2026-04-25 01:37 | -2.14689 | -79.87746 | 20 ft | 10 kts | 189° |
| 2026-04-25 01:37 | -2.14797 | -79.87823 | 22 ft | 0 kts | 207° |
| 2026-04-25 01:37 | -2.14817 | -79.87833 | 21 ft | 26 kts | 207° |
| 2026-04-25 01:38 | -2.15273 | -79.88094 | 22 ft | 123 kts | 210° |
| 2026-04-25 01:38 | -2.16219 | -79.88636 | 363 ft | 175 kts | 210° |
| 2026-04-25 01:38 | -2.17336 | -79.89294 | 1266 ft | 203 kts | 210° |
| 2026-04-25 01:38 | -2.18549 | -79.89996 | 2381 ft | 204 kts | 211° |
| 2026-04-25 01:39 | -2.19546 | -79.91122 | 2778 ft | 234 kts | 249° |
| 2026-04-25 01:39 | -2.19678 | -79.92767 | 3351 ft | 248 kts | 281° |
| 2026-04-25 01:39 | -2.18914 | -79.94379 | 3809 ft | 268 kts | 310° |
| 2026-04-25 01:39 | -2.17474 | -79.95580 | 4700 ft | 272 kts | 330° |
| 2026-04-25 01:40 | -2.15785 | -79.96431 | 5681 ft | 274 kts | 335° |
| 2026-04-25 01:40 | -2.14017 | -79.97208 | 6580 ft | 281 kts | 336° |
| 2026-04-25 01:40 | -2.12219 | -79.97987 | 7563 ft | 283 kts | 336° |
| 2026-04-25 01:40 | -2.10404 | -79.98785 | 8442 ft | 287 kts | 336° |
| 2026-04-25 01:41 | -2.08565 | -79.99610 | 9297 ft | 292 kts | 335° |
| 2026-04-25 01:41 | -2.06704 | -80.00458 | 10139 ft | 295 kts | 335° |
| 2026-04-25 01:41 | -2.04815 | -80.01330 | 10846 ft | 307 kts | 335° |
| 2026-04-25 01:41 | -2.02796 | -80.02268 | 11042 ft | 333 kts | 334° |
| 2026-04-25 01:42 | -2.00635 | -80.03279 | 11383 ft | 350 kts | 334° |
| 2026-04-25 01:42 | -1.98403 | -80.04327 | 12011 ft | 358 kts | 334° |
| 2026-04-25 01:42 | -1.96142 | -80.05390 | 12790 ft | 360 kts | 334° |
| 2026-04-25 01:42 | -1.93867 | -80.06462 | 13583 ft | 363 kts | 334° |
| 2026-04-25 01:43 | -1.91577 | -80.07541 | 14307 ft | 366 kts | 334° |
| 2026-04-25 01:43 | -1.89264 | -80.08632 | 15019 ft | 369 kts | 334° |
| 2026-04-25 01:43 | -1.86935 | -80.09730 | 15713 ft | 372 kts | 334° |
| 2026-04-25 01:43 | -1.84638 | -80.10943 | 16369 ft | 375 kts | 326° |
| 2026-04-25 01:44 | -1.82545 | -80.12510 | 17012 ft | 378 kts | 321° |
| 2026-04-25 01:44 | -1.80482 | -80.14158 | 17641 ft | 381 kts | 321° |
| 2026-04-25 01:44 | -1.78410 | -80.15834 | 18261 ft | 384 kts | 321° |
| 2026-04-25 01:44 | -1.76323 | -80.17521 | 18856 ft | 388 kts | 321° |
| 2026-04-25 01:45 | -1.74207 | -80.19223 | 19342 ft | 393 kts | 321° |
| 2026-04-25 01:45 | -1.72059 | -80.20939 | 19888 ft | 396 kts | 322° |
| 2026-04-25 01:45 | -1.69894 | -80.22660 | 20424 ft | 400 kts | 322° |
| 2026-04-25 01:45 | -1.67707 | -80.24395 | 20944 ft | 403 kts | 322° |
| 2026-04-25 01:46 | -1.65502 | -80.26140 | 21414 ft | 406 kts | 322° |
| 2026-04-25 01:46 | -1.63277 | -80.27899 | 21886 ft | 410 kts | 322° |
| 2026-04-25 01:46 | -1.61032 | -80.29673 | 22312 ft | 414 kts | 322° |
| 2026-04-25 01:46 | -1.58764 | -80.31466 | 22746 ft | 417 kts | 323° |
| 2026-04-25 01:47 | -1.56484 | -80.33267 | 23189 ft | 419 kts | 323° |
| 2026-04-25 01:47 | -1.54186 | -80.35084 | 23605 ft | 422 kts | 323° |
| 2026-04-25 01:47 | -1.51876 | -80.36909 | 24003 ft | 425 kts | 323° |
| 2026-04-25 01:47 | -1.49542 | -80.38753 | 24370 ft | 429 kts | 323° |
| 2026-04-25 01:48 | -1.47195 | -80.40608 | 24716 ft | 432 kts | 323° |
| 2026-04-25 01:48 | -1.44824 | -80.42481 | 25071 ft | 436 kts | 323° |
| 2026-04-25 01:48 | -1.42437 | -80.44367 | 25415 ft | 439 kts | 323° |
| 2026-04-25 01:48 | -1.40034 | -80.46266 | 25745 ft | 442 kts | 323° |
| 2026-04-25 01:49 | -1.37613 | -80.48179 | 26067 ft | 446 kts | 324° |
| 2026-04-25 01:49 | -1.35169 | -80.50110 | 26390 ft | 449 kts | 324° |
| 2026-04-25 01:49 | -1.32709 | -80.52053 | 26674 ft | 452 kts | 324° |
| 2026-04-25 01:49 | -1.30234 | -80.54009 | 26984 ft | 455 kts | 324° |
| 2026-04-25 01:50 | -1.27747 | -80.55973 | 27298 ft | 457 kts | 324° |
| 2026-04-25 01:50 | -1.25241 | -80.57953 | 27583 ft | 460 kts | 324° |
| 2026-04-25 01:50 | -1.22721 | -80.59943 | 27847 ft | 463 kts | 324° |
| 2026-04-25 01:50 | -1.20186 | -80.61946 | 28123 ft | 466 kts | 324° |
| 2026-04-25 01:51 | -1.17635 | -80.63962 | 28389 ft | 469 kts | 324° |
| 2026-04-25 01:51 | -1.15069 | -80.65989 | 28656 ft | 471 kts | 324° |
| 2026-04-25 01:51 | -1.12494 | -80.68023 | 28908 ft | 474 kts | 324° |
| 2026-04-25 01:51 | -1.09901 | -80.70072 | 29147 ft | 476 kts | 324° |
| 2026-04-25 01:52 | -1.07297 | -80.72129 | 29386 ft | 479 kts | 324° |
| 2026-04-25 01:52 | -1.04678 | -80.74197 | 29639 ft | 481 kts | 324° |
| 2026-04-25 01:52 | -1.02046 | -80.76276 | 29882 ft | 483 kts | 324° |
| 2026-04-25 01:52 | -0.99403 | -80.78364 | 30117 ft | 486 kts | 324° |
| 2026-04-25 01:53 | -0.96747 | -80.80462 | 30361 ft | 487 kts | 324° |
| 2026-04-25 01:53 | -0.94083 | -80.82567 | 30591 ft | 489 kts | 324° |
| 2026-04-25 01:53 | -0.91408 | -80.84680 | 30793 ft | 492 kts | 324° |
| 2026-04-25 01:53 | -0.88719 | -80.86804 | 30982 ft | 494 kts | 324° |
| 2026-04-25 01:54 | -0.86018 | -80.88938 | 31187 ft | 496 kts | 324° |
| 2026-04-25 01:54 | -0.83310 | -80.91077 | 31452 ft | 496 kts | 324° |
| 2026-04-25 01:54 | -0.80607 | -80.93213 | 31751 ft | 495 kts | 324° |
| 2026-04-25 01:54 | -0.77899 | -80.95352 | 31892 ft | 498 kts | 324° |
| 2026-04-25 01:55 | -0.72457 | -80.99650 | 31889 ft | 497 kts | 324° |
| 2026-04-25 01:55 | -0.67056 | -81.03916 | 31896 ft | 494 kts | 324° |
| 2026-04-25 01:56 | -0.61674 | -81.08167 | 31900 ft | 493 kts | 324° |
| 2026-04-25 01:56 | -0.56298 | -81.12412 | 31904 ft | 492 kts | 324° |
| 2026-04-25 01:57 | -0.48242 | -81.18772 | 31910 ft | 492 kts | 324° |
| 2026-04-25 01:58 | -0.42867 | -81.23017 | 31908 ft | 493 kts | 324° |
| 2026-04-25 01:58 | -0.38357 | -81.26578 | 31918 ft | 494 kts | 324° |
| 2026-04-25 01:59 | -0.32090 | -81.31527 | 31927 ft | 494 kts | 324° |
| 2026-04-25 01:59 | -0.27568 | -81.35098 | 31929 ft | 495 kts | 324° |
| 2026-04-25 02:00 | -0.22162 | -81.39367 | 31929 ft | 496 kts | 324° |
| 2026-04-25 02:00 | -0.16751 | -81.43642 | 31940 ft | 496 kts | 324° |
| 2026-04-25 02:01 | -0.11484 | -81.48100 | 31949 ft | 498 kts | 320° |
| 2026-04-25 02:01 | -0.06471 | -81.52887 | 31895 ft | 499 kts | 319° |
| 2026-04-25 02:02 | -0.01483 | -81.57715 | 31889 ft | 499 kts | 319° |
| 2026-04-25 02:02 | 0.03518 | -81.62503 | 31886 ft | 498 kts | 319° |
| 2026-04-25 02:03 | 0.08533 | -81.67268 | 31891 ft | 497 kts | 319° |
| 2026-04-25 02:03 | 0.13542 | -81.72017 | 31887 ft | 496 kts | 319° |
| 2026-04-25 02:04 | 0.18542 | -81.76760 | 31888 ft | 495 kts | 319° |
| 2026-04-25 02:04 | 0.23536 | -81.81499 | 31890 ft | 495 kts | 319° |
| 2026-04-25 02:05 | 0.28526 | -81.86236 | 31888 ft | 495 kts | 319° |
| 2026-04-25 02:05 | 0.33515 | -81.90971 | 31889 ft | 495 kts | 319° |
| 2026-04-25 02:06 | 0.38508 | -81.95711 | 31887 ft | 495 kts | 319° |
| 2026-04-25 02:06 | 0.43500 | -82.00450 | 31890 ft | 495 kts | 319° |
| 2026-04-25 02:07 | 0.48496 | -82.05192 | 31889 ft | 495 kts | 319° |
| 2026-04-25 02:07 | 0.53496 | -82.09938 | 31888 ft | 496 kts | 319° |
| 2026-04-25 02:08 | 0.58490 | -82.14679 | 31888 ft | 496 kts | 319° |
| 2026-04-25 02:08 | 0.63489 | -82.19423 | 31890 ft | 496 kts | 319° |
| 2026-04-25 02:09 | 0.68490 | -82.24171 | 31888 ft | 496 kts | 319° |
| 2026-04-25 02:09 | 0.73489 | -82.28917 | 31890 ft | 496 kts | 319° |
| 2026-04-25 02:10 | 0.78524 | -82.33698 | 31889 ft | 496 kts | 319° |
| 2026-04-25 02:10 | 0.83519 | -82.38440 | 31898 ft | 495 kts | 319° |
| 2026-04-25 02:11 | 0.88515 | -82.43183 | 31900 ft | 495 kts | 319° |
| 2026-04-25 02:11 | 0.93507 | -82.47924 | 31899 ft | 495 kts | 319° |
| 2026-04-25 02:12 | 0.98497 | -82.52662 | 31897 ft | 495 kts | 319° |
| 2026-04-25 02:12 | 1.03483 | -82.57396 | 31899 ft | 494 kts | 319° |
| 2026-04-25 02:13 | 1.08469 | -82.62132 | 31900 ft | 494 kts | 319° |
| 2026-04-25 02:13 | 1.13450 | -82.66863 | 31898 ft | 494 kts | 319° |
| 2026-04-25 02:14 | 1.18433 | -82.71596 | 31898 ft | 494 kts | 319° |
| 2026-04-25 02:14 | 1.23413 | -82.76325 | 31900 ft | 494 kts | 319° |
| 2026-04-25 02:15 | 1.28394 | -82.81056 | 31897 ft | 494 kts | 319° |
| 2026-04-25 02:15 | 1.33373 | -82.85787 | 31899 ft | 493 kts | 319° |
| 2026-04-25 02:16 | 1.38370 | -82.90485 | 31892 ft | 492 kts | 323° |
| 2026-04-25 02:16 | 1.44221 | -82.93877 | 31903 ft | 484 kts | 342° |
| 2026-04-25 02:17 | 1.50720 | -82.95385 | 31905 ft | 479 kts | 354° |
| 2026-04-25 02:17 | 1.57309 | -82.96415 | 31892 ft | 479 kts | 354° |
| 2026-04-25 02:18 | 1.63901 | -82.97463 | 31899 ft | 480 kts | 354° |
| 2026-04-25 02:18 | 1.70487 | -82.98555 | 31898 ft | 480 kts | 353° |
| 2026-04-25 02:19 | 1.77075 | -82.99666 | 31900 ft | 480 kts | 353° |
| 2026-04-25 02:19 | 1.83667 | -83.00783 | 31898 ft | 481 kts | 353° |
| 2026-04-25 02:20 | 1.90290 | -83.01904 | 31899 ft | 481 kts | 353° |
| 2026-04-25 02:20 | 1.96856 | -83.03014 | 31897 ft | 481 kts | 353° |
| 2026-04-25 02:21 | 2.03453 | -83.04129 | 31909 ft | 481 kts | 353° |
| 2026-04-25 02:21 | 2.10044 | -83.05241 | 31929 ft | 480 kts | 353° |
| 2026-04-25 02:22 | 2.16634 | -83.06355 | 31938 ft | 480 kts | 353° |
| 2026-04-25 02:22 | 2.23229 | -83.07469 | 31929 ft | 481 kts | 353° |
| 2026-04-25 02:23 | 2.29831 | -83.08585 | 31931 ft | 481 kts | 353° |
| 2026-04-25 02:23 | 2.36438 | -83.09701 | 31928 ft | 482 kts | 353° |
| 2026-04-25 02:24 | 2.43051 | -83.10819 | 31928 ft | 482 kts | 353° |
| 2026-04-25 02:24 | 2.49691 | -83.11942 | 31925 ft | 482 kts | 353° |
| 2026-04-25 02:25 | 2.56310 | -83.13061 | 31934 ft | 482 kts | 353° |
| 2026-04-25 02:25 | 2.62930 | -83.14181 | 31945 ft | 482 kts | 353° |
| 2026-04-25 02:26 | 2.69548 | -83.15299 | 31942 ft | 482 kts | 353° |
| 2026-04-25 02:26 | 2.76158 | -83.16417 | 31945 ft | 482 kts | 353° |
| 2026-04-25 02:27 | 2.82771 | -83.17535 | 31944 ft | 482 kts | 353° |
| 2026-04-25 02:27 | 2.89380 | -83.18654 | 31955 ft | 482 kts | 353° |
| 2026-04-25 02:28 | 2.95993 | -83.19774 | 31952 ft | 482 kts | 353° |
| 2026-04-25 02:28 | 3.02608 | -83.20892 | 31953 ft | 482 kts | 353° |
| 2026-04-25 02:29 | 3.09223 | -83.22011 | 31953 ft | 482 kts | 353° |
| 2026-04-25 02:29 | 3.15841 | -83.23131 | 31954 ft | 482 kts | 353° |
| 2026-04-25 02:30 | 3.22460 | -83.24252 | 31953 ft | 483 kts | 353° |
| 2026-04-25 02:30 | 3.29081 | -83.25372 | 31953 ft | 483 kts | 353° |
| 2026-04-25 02:31 | 3.35703 | -83.26493 | 31954 ft | 483 kts | 353° |
| 2026-04-25 02:31 | 3.42327 | -83.27615 | 31955 ft | 483 kts | 353° |
| 2026-04-25 02:32 | 3.48952 | -83.28738 | 31953 ft | 483 kts | 352° |
| 2026-04-25 02:32 | 3.55580 | -83.29860 | 31954 ft | 483 kts | 353° |
| 2026-04-25 02:33 | 3.62208 | -83.30983 | 31955 ft | 483 kts | 352° |
| 2026-04-25 02:33 | 3.68836 | -83.32106 | 31952 ft | 483 kts | 352° |
| 2026-04-25 02:34 | 3.75467 | -83.33230 | 31955 ft | 483 kts | 352° |
| 2026-04-25 02:34 | 3.82098 | -83.34354 | 31953 ft | 483 kts | 352° |
| 2026-04-25 02:35 | 3.88731 | -83.35478 | 31954 ft | 483 kts | 352° |
| 2026-04-25 02:35 | 3.94286 | -83.36420 | 31954 ft | 483 kts | 352° |
| 2026-04-25 02:36 | 4.00909 | -83.37543 | 31952 ft | 483 kts | 352° |
| 2026-04-25 02:36 | 4.07540 | -83.38666 | 31955 ft | 483 kts | 352° |
| 2026-04-25 02:37 | 4.14168 | -83.39791 | 31953 ft | 483 kts | 352° |
| 2026-04-25 02:37 | 4.20794 | -83.40915 | 31959 ft | 483 kts | 352° |
| 2026-04-25 02:38 | 4.27418 | -83.42039 | 31964 ft | 483 kts | 352° |
| 2026-04-25 02:38 | 4.34043 | -83.43164 | 31963 ft | 483 kts | 352° |
| 2026-04-25 02:39 | 4.40666 | -83.44288 | 31963 ft | 483 kts | 352° |
| 2026-04-25 02:39 | 4.47290 | -83.45413 | 31964 ft | 483 kts | 352° |
| 2026-04-25 02:40 | 4.53912 | -83.46537 | 31961 ft | 483 kts | 352° |
| 2026-04-25 02:40 | 4.60535 | -83.47662 | 31963 ft | 483 kts | 352° |
| 2026-04-25 02:41 | 4.67157 | -83.48787 | 31964 ft | 483 kts | 352° |
| 2026-04-25 02:41 | 4.73776 | -83.49911 | 31962 ft | 483 kts | 352° |
| 2026-04-25 02:42 | 4.80399 | -83.51036 | 31964 ft | 482 kts | 352° |
| 2026-04-25 02:42 | 4.87016 | -83.52160 | 31963 ft | 482 kts | 352° |
| 2026-04-25 02:43 | 4.93637 | -83.53286 | 31963 ft | 482 kts | 351° |
| 2026-04-25 02:43 | 5.00236 | -83.54408 | 31951 ft | 475 kts | 351° |
| 2026-04-25 02:44 | 5.06665 | -83.55502 | 31958 ft | 465 kts | 351° |